Flight Track Log - Related Links

Times and Time Zones

All times are in EDT time to prevent confusion due to time zone crossing. See the RPA3228 flight status page for this flight to view local times or setup timezone preferences in your user account.

Time Position Orientation Groundspeed Altitude Reporting Facility
EDT Latitude Longitude Course Direction KTS MPH feet Rate Location/Type
Fri 07:39:03 AM 36.1333 -86.6833 68° East 157 181 1,500  Level Nashville TRACON
Fri 07:39:33 AM 36.1333 -86.7167 270° West 170 196 2,400 2,357 Climbing Nashville TRACON
Fri 07:40:27 AM 36.1833 -86.7167 360° North 202 232 4,800 2,750 Climbing Nashville TRACON
Fri 07:41:00 AM 36.2520 -86.2949 80° East  Level Estimated
Fri 07:41:33 AM 36.2333 -86.6833 28° Northeast 234 269 7,900  Level Nashville TRACON
Fri 07:42:00 AM 36.2942 -86.1669 64° Northeast  Level Estimated
Fri 07:42:34 AM 36.2369 -86.5975 87° East 251 289 10,000  Level Memphis Center
Fri 07:43:00 AM 36.3363 -86.0387 68° East  Level Estimated
Fri 07:43:34 AM 36.2297 -86.4950 95° East 278 320 13,300  Level Memphis Center
Fri 07:44:00 AM 36.3783 -85.9104 68° East  Level Estimated
Fri 07:44:34 AM 36.2222 -86.3872 95° East 309 356 16,400  Level Memphis Center
Fri 07:45:34 AM 36.2144 -86.2744 95° East 320 368 19,200 2,600 Climbing Memphis Center
Fri 07:46:34 AM 36.2061 -86.1542 95° East 336 387 21,600 2,450 Climbing Memphis Center
Fri 07:47:34 AM 36.2186 -86.0325 83° East 347 399 24,100 2,400 Climbing Memphis Center
Fri 07:48:34 AM 36.2706 -85.9114 62° Northeast 347 399 26,400 2,071 Climbing Memphis Center
Fri 07:49:27 AM 36.3086 -85.8272 61° Northeast 368 423 28,000 1,737 Climbing Indianapolis Center
Fri 07:50:28 AM 36.3592 -85.7183 60° Northeast 376 433 29,700 1,561 Climbing Indianapolis Center
Fri 07:51:30 AM 36.4264 -85.5786 59° Northeast 389 448 31,200 1,610 Climbing Indianapolis Center
Fri 07:52:31 AM 36.4828 -85.4583 60° Northeast 397 457 33,000 885 Climbing Indianapolis Center
Fri 07:53:32 AM 36.5394 -85.3403 59° Northeast 397 457 33,000 585 Level Indianapolis Center
Fri 07:54:34 AM 36.5944 -85.2242 59° Northeast 392 451 34,200 1,122 Climbing Indianapolis Center
Fri 07:55:35 AM 36.6394 -85.0994 66° East 392 451 35,300 1,279 Climbing Indianapolis Center
Fri 07:56:36 AM 36.6792 -84.9672 69° East 402 463 36,800 1,024 Climbing Indianapolis Center
Fri 07:57:38 AM 36.7192 -84.8361 69° East 403 464 37,400 927 Climbing Indianapolis Center
Fri 07:58:39 AM 36.7586 -84.7056 69° East 402 463 38,700 780 Climbing Indianapolis Center
Fri 07:59:41 AM 36.7981 -84.5753 69° East 400 460 39,000 146 Climbing Indianapolis Center
Fri 08:00:42 AM 36.8406 -84.4383 69° East 414 476 39,000  Level Indianapolis Center
Fri 08:01:44 AM 36.8889 -84.2756 70° East 427 491 39,000  Level Indianapolis Center
Fri 08:02:45 AM 36.9306 -84.1375 69° East 424 488 39,000  Level Indianapolis Center
Fri 08:03:46 AM 36.9717 -84.0003 69° East 421 484 39,000  Level Indianapolis Center
Fri 08:04:48 AM 37.0122 -83.8636 70° East 421 484 39,000  Level Indianapolis Center
Fri 08:05:49 AM 37.0533 -83.7269 69° East 418 481 39,000  Level Indianapolis Center
Fri 08:06:50 AM 37.0933 -83.5892 70° East 418 481 39,000  Level Indianapolis Center
Fri 08:07:52 AM 37.1328 -83.4511 70° East 416 479 39,000  Level Indianapolis Center
Fri 08:08:53 AM 37.1731 -83.3122 70° East 419 482 39,000  Level Indianapolis Center
Fri 08:09:54 AM 37.2142 -83.1744 69° East 420 483 39,000  Level Indianapolis Center
Fri 08:10:56 AM 37.2542 -83.0342 70° East 422 486 39,000  Level Indianapolis Center
Fri 08:11:57 AM 37.2933 -82.8931 71° East 422 486 39,000  Level Indianapolis Center
Fri 08:12:58 AM 37.3331 -82.7533 70° East 422 486 39,000  Level Indianapolis Center
Fri 08:14:00 AM 37.3792 -82.5911 70° East 419 482 39,000  Level Indianapolis Center
Fri 08:15:01 AM 37.4178 -82.4514 71° East 420 483 39,000  Level Indianapolis Center
Fri 08:16:03 AM 37.4567 -82.3119 71° East 421 484 39,000  Level Indianapolis Center
Fri 08:17:04 AM 37.4961 -82.1731 70° East 421 484 39,000  Level Indianapolis Center
Fri 08:18:05 AM 37.5353 -82.0333 70° East 422 486 39,000  Level Indianapolis Center
Fri 08:19:07 AM 37.5733 -81.8928 71° East 423 487 39,000  Level Indianapolis Center
Fri 08:20:08 AM 37.6117 -81.7522 71° East 424 488 39,000  Level Indianapolis Center
Fri 08:21:09 AM 37.6500 -81.6114 71° East 424 488 39,000  Level Indianapolis Center
Fri 08:22:11 AM 37.6881 -81.4653 72° East 423 487 39,000  Level Indianapolis Center
Fri 08:23:12 AM 37.7264 -81.3272 71° East 426 490 39,000  Level Indianapolis Center
Fri 08:24:13 AM 37.7700 -81.1619 71° East 425 489 39,000  Level Indianapolis Center
Fri 08:25:15 AM 37.8142 -81.0286 67° East 422 486 39,000  Level Indianapolis Center
Fri 08:26:16 AM 37.8633 -80.8875 66° East 422 486 39,000  Level Indianapolis Center
Fri 08:27:17 AM 37.9111 -80.7528 66° East 421 484 39,000  Level Indianapolis Center
Fri 08:28:19 AM 37.9592 -80.6172 66° East 423 487 39,000 -98 Level Indianapolis Center
Fri 08:29:20 AM 38.0075 -80.4694 67° East 427 491 38,800 -582 Descending Indianapolis Center
Fri 08:30:33 AM 38.0639 -80.3050 66° East 419 482 37,700 -1,075 Descending Washington Center
Fri 08:31:34 AM 38.1064 -80.1783 67° East 425 489 36,400 -1,623 Descending Washington Center
Fri 08:32:35 AM 38.1514 -80.0383 68° East 425 489 34,400 -1,786 Descending Washington Center
Fri 08:33:45 AM 38.2003 -79.8986 66° East 425 489 32,500 -1,603 Descending Washington Center
Fri 08:34:46 AM 38.2564 -79.7219 68° East 425 489 30,900 -1,289 Descending Washington Center
Fri 08:35:46 AM 38.3011 -79.5736 69° East 430 495 29,900 -1,169 Descending Washington Center
Fri 08:36:44 AM 38.3522 -79.4150 68° East 440 506 28,600 -1,169 Descending Washington Center
Fri 08:37:44 AM 38.3983 -79.2689 68° East 440 506 27,600 -992 Descending Washington Center
Fri 08:38:45 AM 38.4444 -79.1281 67° East 440 506 26,600 -793 Descending Washington Center
Fri 08:39:45 AM 38.4819 -78.9814 72° East 435 501 26,000 -545 Descending Washington Center
Fri 08:40:46 AM 38.5003 -78.8469 80° East 430 495 25,500 -1,200 Descending Washington Center
Fri 08:41:45 AM 38.5253 -78.6967 78° East 430 495 23,600 -1,714 Descending Washington Center
Fri 08:42:45 AM 38.5475 -78.5569 78° East 413 475 22,100 -1,438 Descending Washington Center
Fri 08:43:46 AM 38.5675 -78.4169 80° East 408 470 20,700 -1,537 Descending Washington Center
Fri 08:44:46 AM 38.5914 -78.2797 77° East 402 463 19,000 -1,678 Descending Washington Center
Fri 08:45:44 AM 38.6275 -78.1536 70° East 388 447 17,400 -1,678 Descending Washington Center
Fri 08:46:44 AM 38.6678 -78.0325 67° East 373 429 15,700 -1,587 Descending Washington Center
Fri 08:47:45 AM 38.7053 -77.9167 67° East 360 414 14,200 -1,426 Descending Washington Center
Fri 08:48:46 AM 38.7406 -77.8167 66° East 333 383 12,800 -1,361 Descending Washington Center
Fri 08:49:44 AM 38.7983 -77.7333 48° Northeast 311 358 11,500 -1,322 Descending Washington Center
Fri 08:50:44 AM 38.8461 -77.6361 58° Northeast 292 336 10,200 -1,140 Descending Washington Center
Fri 08:51:45 AM 38.8767 -77.5542 64° Northeast 286 329 9,200 -1,191 Descending Washington Center
Fri 08:53:00 AM 38.9000 -77.4167 78° East 296 341 7,500 -1,338 Descending Potomac TRACON
Fri 08:53:55 AM 38.8667 -77.3333 117° Southeast 292 336 6,300 -826 Descending Potomac TRACON
Fri 08:54:49 AM 38.8333 -77.2500 117° Southeast 277 319 6,000 -211 Descending Potomac TRACON
Fri 08:55:49 AM 38.7833 -77.1833 134° Southeast 237 273 5,900 -678 Descending Potomac TRACON
Fri 08:56:44 AM 38.7500 -77.1167 123° Southeast 232 267 4,700 -991 Descending Potomac TRACON
Fri 08:57:44 AM 38.7000 -77.1167 180° South 207 238 4,000 -368 Descending Potomac TRACON
Fri 08:58:38 AM 38.6500 -77.1000 165° South 200 230 4,000  Level Potomac TRACON
Fri 08:59:38 AM 38.5833 -77.1000 180° South 201 231 4,000 -200 Level Potomac TRACON
Fri 09:00:38 AM 38.5500 -77.0667 142° Southeast 214 246 3,600 -500 Descending Potomac TRACON
Fri 09:01:38 AM 38.5833 -77.0167 50° Northeast 192 221 3,000 -300 Descending Potomac TRACON
Fri 09:02:38 AM 38.6333 -77.0333 345° North 183 211 3,000  Level Potomac TRACON
Fri 09:03:39 AM 38.6833 -77.0333 360° North 181 208 3,000 -313 Level Potomac TRACON
Fri 09:04:33 AM 38.7167 -77.0333 360° North 173 199 2,400 -737 Descending Potomac TRACON
Fri 09:05:33 AM 38.7667 -77.0333 360° North 161 185 1,600 -800 Descending Potomac TRACON
Fri 09:06:33 AM 38.8000 -77.0333 360° North 116 133 800 -800 Descending Potomac TRACON

Login

Don't have an account? Register now (free) for customized features, flight alerts, and more!